sensor_id;sensor_type;location;lat;lon;timestamp;temperature;humidity
6822;DHT22;3449;48.728;8.968;2023-07-28T00:02:25;16.20;99.90
6822;DHT22;3449;48.728;8.968;2023-07-28T00:04:52;16.10;99.90
6822;DHT22;3449;48.728;8.968;2023-07-28T00:07:18;16.10;99.90
6822;DHT22;3449;48.728;8.968;2023-07-28T00:09:45;16.00;99.90
6822;DHT22;3449;48.728;8.968;2023-07-28T00:12:12;16.00;99.90
6822;DHT22;3449;48.728;8.968;2023-07-28T00:14:39;15.90;99.90
6822;DHT22;3449;48.728;8.968;2023-07-28T00:17:06;15.80;99.90
6822;DHT22;3449;48.728;8.968;2023-07-28T00:19:34;15.80;99.90
6822;DHT22;3449;48.728;8.968;2023-07-28T00:22:01;15.80;99.90
6822;DHT22;3449;48.728;8.968;2023-07-28T00:24:28;15.70;99.90
6822;DHT22;3449;48.728;8.968;2023-07-28T00:26:54;15.70;99.90
6822;DHT22;3449;48.728;8.968;2023-07-28T00:29:23;15.70;99.90
6822;DHT22;3449;48.728;8.968;2023-07-28T00:31:50;15.60;99.90
6822;DHT22;3449;48.728;8.968;2023-07-28T00:34:17;15.60;99.90
6822;DHT22;3449;48.728;8.968;2023-07-28T00:36:45;15.50;99.90
6822;DHT22;3449;48.728;8.968;2023-07-28T00:39:12;15.50;99.90
6822;DHT22;3449;48.728;8.968;2023-07-28T00:41:39;15.50;99.90
6822;DHT22;3449;48.728;8.968;2023-07-28T00:44:06;15.40;99.90
6822;DHT22;3449;48.728;8.968;2023-07-28T00:46:32;15.40;99.90
6822;DHT22;3449;48.728;8.968;2023-07-28T00:49:00;15.40;99.90
6822;DHT22;3449;48.728;8.968;2023-07-28T00:51:29;15.30;99.90
6822;DHT22;3449;48.728;8.968;2023-07-28T00:53:58;15.30;99.90
6822;DHT22;3449;48.728;8.968;2023-07-28T00:56:27;15.30;99.90
6822;DHT22;3449;48.728;8.968;2023-07-28T00:58:54;15.20;99.90
6822;DHT22;3449;48.728;8.968;2023-07-28T01:01:21;15.20;99.90
6822;DHT22;3449;48.728;8.968;2023-07-28T01:03:48;15.10;99.90
6822;DHT22;3449;48.728;8.968;2023-07-28T01:06:23;15.10;99.90
6822;DHT22;3449;48.728;8.968;2023-07-28T01:09:01;15.10;99.90
6822;DHT22;3449;48.728;8.968;2023-07-28T01:11:29;15.10;99.90
6822;DHT22;3449;48.728;8.968;2023-07-28T01:13:58;15.10;99.90
6822;DHT22;3449;48.728;8.968;2023-07-28T01:16:27;15.00;99.90
6822;DHT22;3449;48.728;8.968;2023-07-28T01:18:54;14.90;99.90
6822;DHT22;3449;48.728;8.968;2023-07-28T01:21:22;14.90;99.90
6822;DHT22;3449;48.728;8.968;2023-07-28T01:24:01;14.90;99.90
6822;DHT22;3449;48.728;8.968;2023-07-28T01:26:35;14.90;99.90
6822;DHT22;3449;48.728;8.968;2023-07-28T01:29:03;14.80;99.90
6822;DHT22;3449;48.728;8.968;2023-07-28T01:31:30;14.80;99.90
6822;DHT22;3449;48.728;8.968;2023-07-28T01:33:57;14.80;99.90
6822;DHT22;3449;48.728;8.968;2023-07-28T01:36:24;14.80;99.90
6822;DHT22;3449;48.728;8.968;2023-07-28T01:38:50;14.80;99.90
6822;DHT22;3449;48.728;8.968;2023-07-28T01:41:17;14.70;99.90
6822;DHT22;3449;48.728;8.968;2023-07-28T01:43:45;14.70;99.90
6822;DHT22;3449;48.728;8.968;2023-07-28T01:46:12;14.70;99.90
6822;DHT22;3449;48.728;8.968;2023-07-28T01:48:39;14.70;99.90
6822;DHT22;3449;48.728;8.968;2023-07-28T01:51:06;14.60;99.90
6822;DHT22;3449;48.728;8.968;2023-07-28T01:53:36;14.60;99.90
6822;DHT22;3449;48.728;8.968;2023-07-28T01:56:03;14.60;99.90
6822;DHT22;3449;48.728;8.968;2023-07-28T01:58:30;14.60;99.90
6822;DHT22;3449;48.728;8.968;2023-07-28T02:00:58;14.60;99.90
6822;DHT22;3449;48.728;8.968;2023-07-28T02:03:28;14.60;99.90
6822;DHT22;3449;48.728;8.968;2023-07-28T02:05:55;14.50;99.90
6822;DHT22;3449;48.728;8.968;2023-07-28T02:08:22;14.50;99.90
6822;DHT22;3449;48.728;8.968;2023-07-28T02:10:50;14.50;99.90
6822;DHT22;3449;48.728;8.968;2023-07-28T02:13:19;14.50;99.90
6822;DHT22;3449;48.728;8.968;2023-07-28T02:15:49;14.50;99.90
6822;DHT22;3449;48.728;8.968;2023-07-28T02:18:17;14.40;99.90
6822;DHT22;3449;48.728;8.968;2023-07-28T02:20:47;14.40;99.90
6822;DHT22;3449;48.728;8.968;2023-07-28T02:23:18;14.40;99.90
6822;DHT22;3449;48.728;8.968;2023-07-28T02:25:45;14.40;99.90
6822;DHT22;3449;48.728;8.968;2023-07-28T02:28:15;14.40;99.90
6822;DHT22;3449;48.728;8.968;2023-07-28T02:30:42;14.40;99.90
6822;DHT22;3449;48.728;8.968;2023-07-28T02:33:09;14.40;99.90
6822;DHT22;3449;48.728;8.968;2023-07-28T02:35:39;14.40;99.90
6822;DHT22;3449;48.728;8.968;2023-07-28T02:38:06;14.40;99.90
6822;DHT22;3449;48.728;8.968;2023-07-28T02:40:33;14.40;99.90
6822;DHT22;3449;48.728;8.968;2023-07-28T02:43:00;14.40;99.90
6822;DHT22;3449;48.728;8.968;2023-07-28T02:45:27;14.40;99.90
6822;DHT22;3449;48.728;8.968;2023-07-28T02:47:54;14.40;99.90
6822;DHT22;3449;48.728;8.968;2023-07-28T02:50:20;14.40;99.90
6822;DHT22;3449;48.728;8.968;2023-07-28T02:52:50;14.50;99.90
6822;DHT22;3449;48.728;8.968;2023-07-28T02:55:16;14.50;99.90
6822;DHT22;3449;48.728;8.968;2023-07-28T02:57:43;14.50;99.90
6822;DHT22;3449;48.728;8.968;2023-07-28T03:00:11;14.50;99.90
6822;DHT22;3449;48.728;8.968;2023-07-28T03:02:38;14.60;99.90
6822;DHT22;3449;48.728;8.968;2023-07-28T03:05:05;14.60;99.90
6822;DHT22;3449;48.728;8.968;2023-07-28T03:07:32;14.60;99.90
6822;DHT22;3449;48.728;8.968;2023-07-28T03:10:00;14.60;99.90
6822;DHT22;3449;48.728;8.968;2023-07-28T03:12:27;14.60;99.90
6822;DHT22;3449;48.728;8.968;2023-07-28T03:14:56;14.60;99.90
6822;DHT22;3449;48.728;8.968;2023-07-28T03:17:22;14.60;99.90
6822;DHT22;3449;48.728;8.968;2023-07-28T03:19:50;14.60;99.90
6822;DHT22;3449;48.728;8.968;2023-07-28T03:22:17;14.60;99.90
6822;DHT22;3449;48.728;8.968;2023-07-28T03:24:46;14.70;99.90
6822;DHT22;3449;48.728;8.968;2023-07-28T03:27:14;14.60;99.90
6822;DHT22;3449;48.728;8.968;2023-07-28T03:29:41;14.70;99.90
6822;DHT22;3449;48.728;8.968;2023-07-28T03:32:07;14.70;99.90
6822;DHT22;3449;48.728;8.968;2023-07-28T03:34:34;14.70;99.90
6822;DHT22;3449;48.728;8.968;2023-07-28T03:37:01;14.70;99.90
6822;DHT22;3449;48.728;8.968;2023-07-28T03:39:28;14.80;99.90
6822;DHT22;3449;48.728;8.968;2023-07-28T03:41:56;14.80;99.90
6822;DHT22;3449;48.728;8.968;2023-07-28T03:44:25;14.80;99.90
6822;DHT22;3449;48.728;8.968;2023-07-28T03:46:52;14.80;99.90
6822;DHT22;3449;48.728;8.968;2023-07-28T03:49:19;14.80;99.90
6822;DHT22;3449;48.728;8.968;2023-07-28T03:51:46;14.90;99.90
6822;DHT22;3449;48.728;8.968;2023-07-28T03:54:13;15.00;99.90
6822;DHT22;3449;48.728;8.968;2023-07-28T03:56:39;15.00;99.90
6822;DHT22;3449;48.728;8.968;2023-07-28T03:59:06;15.10;99.90
6822;DHT22;3449;48.728;8.968;2023-07-28T04:01:34;15.10;99.90
6822;DHT22;3449;48.728;8.968;2023-07-28T04:04:01;15.10;99.90
6822;DHT22;3449;48.728;8.968;2023-07-28T04:06:39;15.10;99.90
6822;DHT22;3449;48.728;8.968;2023-07-28T04:09:08;15.20;99.90
6822;DHT22;3449;48.728;8.968;2023-07-28T04:11:35;15.20;99.90
6822;DHT22;3449;48.728;8.968;2023-07-28T04:14:02;15.20;99.90
6822;DHT22;3449;48.728;8.968;2023-07-28T04:16:29;15.30;99.90
6822;DHT22;3449;48.728;8.968;2023-07-28T04:18:57;15.30;99.90
6822;DHT22;3449;48.728;8.968;2023-07-28T04:21:24;15.30;99.90
6822;DHT22;3449;48.728;8.968;2023-07-28T04:23:51;15.30;99.90
6822;DHT22;3449;48.728;8.968;2023-07-28T04:26:18;15.40;99.90
6822;DHT22;3449;48.728;8.968;2023-07-28T04:28:47;15.50;99.90
6822;DHT22;3449;48.728;8.968;2023-07-28T04:31:17;15.50;99.90
6822;DHT22;3449;48.728;8.968;2023-07-28T04:33:44;15.50;99.90
6822;DHT22;3449;48.728;8.968;2023-07-28T04:36:12;15.50;99.90
6822;DHT22;3449;48.728;8.968;2023-07-28T04:38:41;15.60;99.90
6822;DHT22;3449;48.728;8.968;2023-07-28T04:41:08;15.50;99.90
6822;DHT22;3449;48.728;8.968;2023-07-28T04:43:35;15.60;99.90
6822;DHT22;3449;48.728;8.968;2023-07-28T04:46:05;15.60;99.90
6822;DHT22;3449;48.728;8.968;2023-07-28T04:48:32;15.60;99.90
6822;DHT22;3449;48.728;8.968;2023-07-28T04:50:58;15.50;99.90
6822;DHT22;3449;48.728;8.968;2023-07-28T04:53:27;15.50;99.90
6822;DHT22;3449;48.728;8.968;2023-07-28T04:55:54;15.50;99.90
6822;DHT22;3449;48.728;8.968;2023-07-28T04:58:20;15.50;99.90
6822;DHT22;3449;48.728;8.968;2023-07-28T05:00:47;15.50;99.90
6822;DHT22;3449;48.728;8.968;2023-07-28T05:03:14;15.50;99.90
6822;DHT22;3449;48.728;8.968;2023-07-28T05:05:43;15.60;99.90
6822;DHT22;3449;48.728;8.968;2023-07-28T05:08:09;15.60;99.90
6822;DHT22;3449;48.728;8.968;2023-07-28T05:10:38;15.60;99.90
6822;DHT22;3449;48.728;8.968;2023-07-28T05:13:05;15.60;99.90
6822;DHT22;3449;48.728;8.968;2023-07-28T05:15:31;15.60;99.90
6822;DHT22;3449;48.728;8.968;2023-07-28T05:17:58;15.60;99.90
6822;DHT22;3449;48.728;8.968;2023-07-28T05:20:25;15.60;99.90
6822;DHT22;3449;48.728;8.968;2023-07-28T05:22:52;15.60;99.90
6822;DHT22;3449;48.728;8.968;2023-07-28T05:25:19;15.60;99.90
6822;DHT22;3449;48.728;8.968;2023-07-28T05:27:49;15.70;99.90
6822;DHT22;3449;48.728;8.968;2023-07-28T05:30:16;15.70;99.90
6822;DHT22;3449;48.728;8.968;2023-07-28T05:32:42;15.70;99.90
6822;DHT22;3449;48.728;8.968;2023-07-28T05:35:11;15.70;99.90
6822;DHT22;3449;48.728;8.968;2023-07-28T05:37:38;15.80;99.90
6822;DHT22;3449;48.728;8.968;2023-07-28T05:40:06;15.80;99.90
6822;DHT22;3449;48.728;8.968;2023-07-28T05:42:33;15.80;99.90
6822;DHT22;3449;48.728;8.968;2023-07-28T05:45:04;15.80;99.90
6822;DHT22;3449;48.728;8.968;2023-07-28T05:47:31;15.80;99.90
6822;DHT22;3449;48.728;8.968;2023-07-28T05:49:57;15.90;99.90
6822;DHT22;3449;48.728;8.968;2023-07-28T05:52:25;15.90;99.90
6822;DHT22;3449;48.728;8.968;2023-07-28T05:54:51;15.90;99.90
6822;DHT22;3449;48.728;8.968;2023-07-28T05:57:20;15.90;99.90
6822;DHT22;3449;48.728;8.968;2023-07-28T05:59:46;16.00;99.90
6822;DHT22;3449;48.728;8.968;2023-07-28T06:02:15;16.00;99.90
6822;DHT22;3449;48.728;8.968;2023-07-28T06:04:44;16.00;99.90
6822;DHT22;3449;48.728;8.968;2023-07-28T06:07:12;16.10;99.90
6822;DHT22;3449;48.728;8.968;2023-07-28T06:09:38;16.10;99.90
6822;DHT22;3449;48.728;8.968;2023-07-28T06:12:08;16.10;99.90
6822;DHT22;3449;48.728;8.968;2023-07-28T06:14:35;16.20;99.90
6822;DHT22;3449;48.728;8.968;2023-07-28T06:17:02;16.20;99.90
6822;DHT22;3449;48.728;8.968;2023-07-28T06:19:30;16.30;99.90
6822;DHT22;3449;48.728;8.968;2023-07-28T06:21:57;16.30;99.90
6822;DHT22;3449;48.728;8.968;2023-07-28T06:24:24;16.40;99.90
6822;DHT22;3449;48.728;8.968;2023-07-28T06:26:51;16.40;99.90
6822;DHT22;3449;48.728;8.968;2023-07-28T06:29:22;16.50;99.90
6822;DHT22;3449;48.728;8.968;2023-07-28T06:31:49;16.60;99.90
6822;DHT22;3449;48.728;8.968;2023-07-28T06:34:16;16.60;99.90
6822;DHT22;3449;48.728;8.968;2023-07-28T06:36:44;16.70;99.90
6822;DHT22;3449;48.728;8.968;2023-07-28T06:39:10;16.70;99.90
6822;DHT22;3449;48.728;8.968;2023-07-28T06:41:37;16.70;99.90
6822;DHT22;3449;48.728;8.968;2023-07-28T06:44:04;16.70;99.90
6822;DHT22;3449;48.728;8.968;2023-07-28T06:46:34;16.70;99.90
6822;DHT22;3449;48.728;8.968;2023-07-28T06:49:01;16.70;99.90
6822;DHT22;3449;48.728;8.968;2023-07-28T06:51:28;16.70;99.90
6822;DHT22;3449;48.728;8.968;2023-07-28T06:53:56;16.70;99.90
6822;DHT22;3449;48.728;8.968;2023-07-28T06:56:23;16.80;99.90
6822;DHT22;3449;48.728;8.968;2023-07-28T06:58:50;16.80;99.90
6822;DHT22;3449;48.728;8.968;2023-07-28T07:01:17;16.80;99.90
6822;DHT22;3449;48.728;8.968;2023-07-28T07:03:43;16.90;99.90
6822;DHT22;3449;48.728;8.968;2023-07-28T07:06:10;16.90;99.90
6822;DHT22;3449;48.728;8.968;2023-07-28T07:08:39;17.00;99.90
6822;DHT22;3449;48.728;8.968;2023-07-28T07:11:07;17.00;99.90
6822;DHT22;3449;48.728;8.968;2023-07-28T07:13:37;17.00;99.90
6822;DHT22;3449;48.728;8.968;2023-07-28T07:16:13;17.10;99.90
6822;DHT22;3449;48.728;8.968;2023-07-28T07:18:42;17.20;99.90
6822;DHT22;3449;48.728;8.968;2023-07-28T07:21:09;17.20;99.90
6822;DHT22;3449;48.728;8.968;2023-07-28T07:23:36;17.40;99.90
6822;DHT22;3449;48.728;8.968;2023-07-28T07:26:02;17.50;99.90
6822;DHT22;3449;48.728;8.968;2023-07-28T07:28:31;17.70;99.90
6822;DHT22;3449;48.728;8.968;2023-07-28T07:30:58;17.80;99.90
6822;DHT22;3449;48.728;8.968;2023-07-28T07:33:24;18.00;99.90
6822;DHT22;3449;48.728;8.968;2023-07-28T07:35:51;18.00;99.90
6822;DHT22;3449;48.728;8.968;2023-07-28T07:38:19;18.10;99.90
6822;DHT22;3449;48.728;8.968;2023-07-28T07:40:46;18.10;99.90
6822;DHT22;3449;48.728;8.968;2023-07-28T07:43:13;18.10;99.90
6822;DHT22;3449;48.728;8.968;2023-07-28T07:45:46;18.10;99.90
6822;DHT22;3449;48.728;8.968;2023-07-28T07:48:15;18.10;99.90
6822;DHT22;3449;48.728;8.968;2023-07-28T07:50:42;18.20;99.90
6822;DHT22;3449;48.728;8.968;2023-07-28T07:53:09;18.30;99.90
6822;DHT22;3449;48.728;8.968;2023-07-28T07:55:36;18.30;99.90
6822;DHT22;3449;48.728;8.968;2023-07-28T07:58:02;18.40;99.90
6822;DHT22;3449;48.728;8.968;2023-07-28T08:00:30;18.50;99.90
6822;DHT22;3449;48.728;8.968;2023-07-28T08:02:58;18.60;99.90
6822;DHT22;3449;48.728;8.968;2023-07-28T08:05:25;18.60;99.90
6822;DHT22;3449;48.728;8.968;2023-07-28T08:07:52;18.80;99.90
6822;DHT22;3449;48.728;8.968;2023-07-28T08:10:22;18.90;99.90
6822;DHT22;3449;48.728;8.968;2023-07-28T08:12:51;19.10;99.90
6822;DHT22;3449;48.728;8.968;2023-07-28T08:15:18;19.20;99.90
6822;DHT22;3449;48.728;8.968;2023-07-28T08:17:46;19.30;99.90
6822;DHT22;3449;48.728;8.968;2023-07-28T08:20:15;19.30;99.90
6822;DHT22;3449;48.728;8.968;2023-07-28T08:22:41;19.30;99.90
6822;DHT22;3449;48.728;8.968;2023-07-28T08:25:09;19.40;99.90
6822;DHT22;3449;48.728;8.968;2023-07-28T08:27:36;19.40;99.90
6822;DHT22;3449;48.728;8.968;2023-07-28T08:30:03;19.50;99.90
6822;DHT22;3449;48.728;8.968;2023-07-28T08:32:30;19.60;99.90
6822;DHT22;3449;48.728;8.968;2023-07-28T08:34:57;19.70;99.90
6822;DHT22;3449;48.728;8.968;2023-07-28T08:37:25;19.80;99.90
6822;DHT22;3449;48.728;8.968;2023-07-28T08:39:53;19.80;99.90
6822;DHT22;3449;48.728;8.968;2023-07-28T08:42:20;19.90;99.90
6822;DHT22;3449;48.728;8.968;2023-07-28T08:44:48;20.10;99.90
6822;DHT22;3449;48.728;8.968;2023-07-28T08:47:17;20.20;99.90
6822;DHT22;3449;48.728;8.968;2023-07-28T08:49:47;20.20;99.90
6822;DHT22;3449;48.728;8.968;2023-07-28T08:52:16;20.30;99.90
6822;DHT22;3449;48.728;8.968;2023-07-28T08:54:45;20.30;99.90
6822;DHT22;3449;48.728;8.968;2023-07-28T08:57:12;20.30;99.90
6822;DHT22;3449;48.728;8.968;2023-07-28T08:59:38;20.30;99.90
6822;DHT22;3449;48.728;8.968;2023-07-28T09:02:09;20.40;99.90
6822;DHT22;3449;48.728;8.968;2023-07-28T09:04:36;20.50;99.90
6822;DHT22;3449;48.728;8.968;2023-07-28T09:07:04;20.60;99.90
6822;DHT22;3449;48.728;8.968;2023-07-28T09:09:32;20.70;99.90
6822;DHT22;3449;48.728;8.968;2023-07-28T09:12:02;20.90;99.90
6822;DHT22;3449;48.728;8.968;2023-07-28T09:14:30;21.10;99.90
6822;DHT22;3449;48.728;8.968;2023-07-28T09:17:06;21.10;99.90
6822;DHT22;3449;48.728;8.968;2023-07-28T09:19:33;21.10;99.90
6822;DHT22;3449;48.728;8.968;2023-07-28T09:22:01;21.10;99.90
6822;DHT22;3449;48.728;8.968;2023-07-28T09:24:31;21.10;99.90
6822;DHT22;3449;48.728;8.968;2023-07-28T09:27:00;21.10;99.90
6822;DHT22;3449;48.728;8.968;2023-07-28T09:29:27;21.10;99.90
6822;DHT22;3449;48.728;8.968;2023-07-28T09:32:03;21.20;99.90
6822;DHT22;3449;48.728;8.968;2023-07-28T09:34:33;21.10;99.90
6822;DHT22;3449;48.728;8.968;2023-07-28T09:37:00;21.10;99.90
6822;DHT22;3449;48.728;8.968;2023-07-28T09:39:27;21.00;99.90
6822;DHT22;3449;48.728;8.968;2023-07-28T09:41:54;21.00;99.90
6822;DHT22;3449;48.728;8.968;2023-07-28T09:44:27;20.90;99.90
6822;DHT22;3449;48.728;8.968;2023-07-28T09:46:56;21.00;99.90
6822;DHT22;3449;48.728;8.968;2023-07-28T09:49:28;21.00;99.90
6822;DHT22;3449;48.728;8.968;2023-07-28T09:52:00;21.00;99.90
6822;DHT22;3449;48.728;8.968;2023-07-28T09:54:29;21.10;99.90
6822;DHT22;3449;48.728;8.968;2023-07-28T09:56:57;21.00;99.90
6822;DHT22;3449;48.728;8.968;2023-07-28T09:59:29;21.10;99.90
6822;DHT22;3449;48.728;8.968;2023-07-28T10:01:57;21.10;99.90
6822;DHT22;3449;48.728;8.968;2023-07-28T10:04:24;21.10;99.90
6822;DHT22;3449;48.728;8.968;2023-07-28T10:06:53;21.10;99.90
6822;DHT22;3449;48.728;8.968;2023-07-28T10:09:23;21.30;99.90
6822;DHT22;3449;48.728;8.968;2023-07-28T10:11:50;21.40;99.90
6822;DHT22;3449;48.728;8.968;2023-07-28T10:14:27;21.40;99.90
6822;DHT22;3449;48.728;8.968;2023-07-28T10:16:56;21.40;99.90
6822;DHT22;3449;48.728;8.968;2023-07-28T10:19:24;21.40;99.90
6822;DHT22;3449;48.728;8.968;2023-07-28T10:22:01;21.40;99.90
6822;DHT22;3449;48.728;8.968;2023-07-28T10:24:50;21.30;99.90
6822;DHT22;3449;48.728;8.968;2023-07-28T10:27:29;21.30;99.90
6822;DHT22;3449;48.728;8.968;2023-07-28T10:29:59;21.30;99.90
6822;DHT22;3449;48.728;8.968;2023-07-28T10:32:27;21.50;99.90
6822;DHT22;3449;48.728;8.968;2023-07-28T10:35:01;21.50;99.90
6822;DHT22;3449;48.728;8.968;2023-07-28T10:37:28;21.50;99.90
6822;DHT22;3449;48.728;8.968;2023-07-28T10:40:23;21.70;99.90
6822;DHT22;3449;48.728;8.968;2023-07-28T10:42:51;21.90;99.90
6822;DHT22;3449;48.728;8.968;2023-07-28T10:45:19;22.00;99.90
6822;DHT22;3449;48.728;8.968;2023-07-28T10:47:46;22.10;99.90
6822;DHT22;3449;48.728;8.968;2023-07-28T10:50:15;22.10;99.90
6822;DHT22;3449;48.728;8.968;2023-07-28T10:52:42;22.20;99.90
6822;DHT22;3449;48.728;8.968;2023-07-28T10:55:13;22.20;99.90
6822;DHT22;3449;48.728;8.968;2023-07-28T10:57:41;22.50;99.90
6822;DHT22;3449;48.728;8.968;2023-07-28T11:00:10;22.80;99.90
6822;DHT22;3449;48.728;8.968;2023-07-28T11:02:44;23.00;99.90
6822;DHT22;3449;48.728;8.968;2023-07-28T11:05:12;22.90;99.90
6822;DHT22;3449;48.728;8.968;2023-07-28T11:07:41;22.90;99.90
6822;DHT22;3449;48.728;8.968;2023-07-28T11:10:09;22.60;99.90
6822;DHT22;3449;48.728;8.968;2023-07-28T11:12:39;22.50;99.90
6822;DHT22;3449;48.728;8.968;2023-07-28T11:15:09;22.30;99.90
6822;DHT22;3449;48.728;8.968;2023-07-28T11:17:37;22.20;99.90
6822;DHT22;3449;48.728;8.968;2023-07-28T11:20:16;22.20;99.90
6822;DHT22;3449;48.728;8.968;2023-07-28T11:22:43;22.10;99.90
6822;DHT22;3449;48.728;8.968;2023-07-28T11:25:10;22.20;99.90
6822;DHT22;3449;48.728;8.968;2023-07-28T11:27:37;22.40;99.90
6822;DHT22;3449;48.728;8.968;2023-07-28T11:30:07;22.50;99.90
6822;DHT22;3449;48.728;8.968;2023-07-28T11:32:37;22.50;99.90
6822;DHT22;3449;48.728;8.968;2023-07-28T11:35:05;22.40;99.90
6822;DHT22;3449;48.728;8.968;2023-07-28T11:37:35;22.40;99.90
6822;DHT22;3449;48.728;8.968;2023-07-28T11:40:04;22.20;99.90
6822;DHT22;3449;48.728;8.968;2023-07-28T11:42:33;22.00;99.90
6822;DHT22;3449;48.728;8.968;2023-07-28T11:45:02;21.90;99.90
6822;DHT22;3449;48.728;8.968;2023-07-28T11:47:29;21.70;99.90
6822;DHT22;3449;48.728;8.968;2023-07-28T11:49:57;21.50;99.90
6822;DHT22;3449;48.728;8.968;2023-07-28T11:52:30;21.30;99.90
6822;DHT22;3449;48.728;8.968;2023-07-28T11:54:59;21.10;99.90
6822;DHT22;3449;48.728;8.968;2023-07-28T11:57:29;21.00;99.90
6822;DHT22;3449;48.728;8.968;2023-07-28T11:59:56;21.00;99.90
6822;DHT22;3449;48.728;8.968;2023-07-28T12:02:27;21.10;99.90
6822;DHT22;3449;48.728;8.968;2023-07-28T12:04:54;21.10;99.90
6822;DHT22;3449;48.728;8.968;2023-07-28T12:07:28;21.10;99.90
6822;DHT22;3449;48.728;8.968;2023-07-28T12:09:58;21.00;99.90
6822;DHT22;3449;48.728;8.968;2023-07-28T12:12:41;21.00;99.90
6822;DHT22;3449;48.728;8.968;2023-07-28T12:15:20;21.10;99.90
6822;DHT22;3449;48.728;8.968;2023-07-28T12:18:10;21.20;99.90
6822;DHT22;3449;48.728;8.968;2023-07-28T12:20:39;21.20;99.90
6822;DHT22;3449;48.728;8.968;2023-07-28T12:23:07;21.20;99.90
6822;DHT22;3449;48.728;8.968;2023-07-28T12:25:36;21.30;99.90
6822;DHT22;3449;48.728;8.968;2023-07-28T12:28:04;21.40;99.90
6822;DHT22;3449;48.728;8.968;2023-07-28T12:30:31;21.60;99.90
6822;DHT22;3449;48.728;8.968;2023-07-28T12:32:58;22.00;99.90
6822;DHT22;3449;48.728;8.968;2023-07-28T12:35:26;22.10;99.90
6822;DHT22;3449;48.728;8.968;2023-07-28T12:37:57;22.30;99.90
6822;DHT22;3449;48.728;8.968;2023-07-28T12:40:26;22.40;99.90
6822;DHT22;3449;48.728;8.968;2023-07-28T12:42:57;22.40;99.90
6822;DHT22;3449;48.728;8.968;2023-07-28T12:45:26;22.50;99.90
6822;DHT22;3449;48.728;8.968;2023-07-28T12:47:55;22.50;99.90
6822;DHT22;3449;48.728;8.968;2023-07-28T12:50:23;22.50;99.90
6822;DHT22;3449;48.728;8.968;2023-07-28T12:52:50;22.40;99.90
6822;DHT22;3449;48.728;8.968;2023-07-28T12:55:18;22.30;99.90
6822;DHT22;3449;48.728;8.968;2023-07-28T12:57:46;22.20;99.90
6822;DHT22;3449;48.728;8.968;2023-07-28T13:00:14;22.20;99.90
6822;DHT22;3449;48.728;8.968;2023-07-28T13:02:44;22.00;99.90
6822;DHT22;3449;48.728;8.968;2023-07-28T13:05:11;22.00;99.90
6822;DHT22;3449;48.728;8.968;2023-07-28T13:07:39;21.90;99.90
6822;DHT22;3449;48.728;8.968;2023-07-28T13:10:09;21.80;99.90
6822;DHT22;3449;48.728;8.968;2023-07-28T13:12:36;21.70;99.90
6822;DHT22;3449;48.728;8.968;2023-07-28T13:15:04;21.50;99.90
6822;DHT22;3449;48.728;8.968;2023-07-28T13:17:31;21.30;99.90
6822;DHT22;3449;48.728;8.968;2023-07-28T13:19:59;21.10;99.90
6822;DHT22;3449;48.728;8.968;2023-07-28T13:22:26;20.90;99.90
6822;DHT22;3449;48.728;8.968;2023-07-28T13:24:53;20.70;99.90
6822;DHT22;3449;48.728;8.968;2023-07-28T13:27:19;20.50;99.90
6822;DHT22;3449;48.728;8.968;2023-07-28T13:29:46;20.40;99.90
6822;DHT22;3449;48.728;8.968;2023-07-28T13:32:18;20.40;99.90
6822;DHT22;3449;48.728;8.968;2023-07-28T13:34:45;20.20;99.90
6822;DHT22;3449;48.728;8.968;2023-07-28T13:37:14;20.20;99.90
6822;DHT22;3449;48.728;8.968;2023-07-28T13:39:41;20.10;99.90
6822;DHT22;3449;48.728;8.968;2023-07-28T13:42:08;20.00;99.90
6822;DHT22;3449;48.728;8.968;2023-07-28T13:44:37;19.90;99.90
6822;DHT22;3449;48.728;8.968;2023-07-28T13:47:04;19.70;99.90
6822;DHT22;3449;48.728;8.968;2023-07-28T13:49:31;19.50;99.90
6822;DHT22;3449;48.728;8.968;2023-07-28T13:52:01;19.30;99.90
6822;DHT22;3449;48.728;8.968;2023-07-28T13:54:29;19.20;99.90
6822;DHT22;3449;48.728;8.968;2023-07-28T13:56:56;19.00;99.90
6822;DHT22;3449;48.728;8.968;2023-07-28T13:59:23;18.90;99.90
6822;DHT22;3449;48.728;8.968;2023-07-28T14:01:50;18.90;99.90
6822;DHT22;3449;48.728;8.968;2023-07-28T14:04:16;18.80;99.90
6822;DHT22;3449;48.728;8.968;2023-07-28T14:06:43;18.80;99.90
6822;DHT22;3449;48.728;8.968;2023-07-28T14:09:12;18.70;99.90
6822;DHT22;3449;48.728;8.968;2023-07-28T14:11:40;18.70;99.90
6822;DHT22;3449;48.728;8.968;2023-07-28T14:14:07;18.70;99.90
6822;DHT22;3449;48.728;8.968;2023-07-28T14:16:34;18.80;99.90
6822;DHT22;3449;48.728;8.968;2023-07-28T14:19:01;18.80;99.90
6822;DHT22;3449;48.728;8.968;2023-07-28T14:21:28;18.80;99.90
6822;DHT22;3449;48.728;8.968;2023-07-28T14:23:55;18.90;99.90
6822;DHT22;3449;48.728;8.968;2023-07-28T14:26:22;18.90;99.90
6822;DHT22;3449;48.728;8.968;2023-07-28T14:28:50;18.90;99.90
6822;DHT22;3449;48.728;8.968;2023-07-28T14:31:17;18.80;99.90
6822;DHT22;3449;48.728;8.968;2023-07-28T14:33:44;18.80;99.90
6822;DHT22;3449;48.728;8.968;2023-07-28T14:36:10;18.90;99.90
6822;DHT22;3449;48.728;8.968;2023-07-28T14:38:38;18.80;99.90
6822;DHT22;3449;48.728;8.968;2023-07-28T14:41:05;18.80;99.90
6822;DHT22;3449;48.728;8.968;2023-07-28T14:43:32;18.90;99.90
6822;DHT22;3449;48.728;8.968;2023-07-28T14:46:00;19.00;99.90
6822;DHT22;3449;48.728;8.968;2023-07-28T14:48:27;19.00;99.90
6822;DHT22;3449;48.728;8.968;2023-07-28T14:50:54;19.00;99.90
6822;DHT22;3449;48.728;8.968;2023-07-28T14:53:31;19.10;99.90
6822;DHT22;3449;48.728;8.968;2023-07-28T14:55:58;19.20;99.90
6822;DHT22;3449;48.728;8.968;2023-07-28T14:58:26;19.30;99.90
6822;DHT22;3449;48.728;8.968;2023-07-28T15:00:53;19.40;99.90
6822;DHT22;3449;48.728;8.968;2023-07-28T15:03:22;19.60;99.90
6822;DHT22;3449;48.728;8.968;2023-07-28T15:05:49;19.70;99.90
6822;DHT22;3449;48.728;8.968;2023-07-28T15:08:16;19.80;99.90
6822;DHT22;3449;48.728;8.968;2023-07-28T15:10:42;19.90;99.90
6822;DHT22;3449;48.728;8.968;2023-07-28T15:13:09;19.90;99.90
6822;DHT22;3449;48.728;8.968;2023-07-28T15:15:36;19.90;99.90
6822;DHT22;3449;48.728;8.968;2023-07-28T15:18:03;19.90;99.90
6822;DHT22;3449;48.728;8.968;2023-07-28T15:20:31;19.80;99.90
6822;DHT22;3449;48.728;8.968;2023-07-28T15:22:58;19.80;99.90
6822;DHT22;3449;48.728;8.968;2023-07-28T15:25:25;19.80;99.90
6822;DHT22;3449;48.728;8.968;2023-07-28T15:27:53;19.80;99.90
6822;DHT22;3449;48.728;8.968;2023-07-28T15:30:20;19.70;99.90
6822;DHT22;3449;48.728;8.968;2023-07-28T15:32:47;19.70;99.90
6822;DHT22;3449;48.728;8.968;2023-07-28T15:35:17;19.50;99.90
6822;DHT22;3449;48.728;8.968;2023-07-28T15:37:45;19.50;99.90
6822;DHT22;3449;48.728;8.968;2023-07-28T15:40:12;19.50;99.90
6822;DHT22;3449;48.728;8.968;2023-07-28T15:42:45;19.50;99.90
6822;DHT22;3449;48.728;8.968;2023-07-28T15:45:12;19.50;99.90
6822;DHT22;3449;48.728;8.968;2023-07-28T15:47:39;19.50;99.90
6822;DHT22;3449;48.728;8.968;2023-07-28T15:50:10;19.50;99.90
6822;DHT22;3449;48.728;8.968;2023-07-28T15:52:37;19.50;99.90
6822;DHT22;3449;48.728;8.968;2023-07-28T15:55:06;19.50;99.90
6822;DHT22;3449;48.728;8.968;2023-07-28T15:57:33;19.50;99.90
6822;DHT22;3449;48.728;8.968;2023-07-28T16:00:00;19.50;99.90
6822;DHT22;3449;48.728;8.968;2023-07-28T16:02:26;19.60;99.90
6822;DHT22;3449;48.728;8.968;2023-07-28T16:04:53;19.60;99.90
6822;DHT22;3449;48.728;8.968;2023-07-28T16:07:20;19.50;99.90
6822;DHT22;3449;48.728;8.968;2023-07-28T16:09:48;19.50;99.90